Time;durP1;ratioP1;P1;durP2;ratioP2;P2;SDS_P1;SDS_P2;PMS_P1;PMS_P2;Temp;Humidity;BMP_temperature;BMP_pressure;BME280_temperature;BME280_humidity;BME280_pressure;Samples;Min_cycle;Max_cycle;Signal;HPM_P1;HPM_P2
2022/11/18 00:01:32;;;;;;;1999.90;999.90;;;9.40;99.90;;;;;;6716569;88;20185;-75
2022/11/18 00:21:55;;;;;;;1999.90;999.90;;;9.40;99.90;;;;;;6735807;77;20195;-74
2022/11/18 00:31:56;;;;;;;1999.90;999.90;;;9.50;99.90;;;;;;6750324;87;20200;-73
2022/11/18 00:52:16;;;;;;;1999.90;999.90;;;9.30;99.90;;;;;;6741729;87;20185;-73
2022/11/18 01:02:17;;;;;;;1999.90;999.90;;;9.30;99.90;;;;;;6739801;87;20218;-74
2022/11/18 01:22:36;;;;;;;1999.90;999.90;;;9.40;99.90;;;;;;6747767;87;20205;-74
2022/11/18 01:32:37;;;;;;;1999.90;999.90;;;9.30;99.90;;;;;;6738610;87;20697;-74
2022/11/18 01:42:37;;;;;;;1999.90;999.90;;;9.30;99.90;;;;;;6738091;87;20670;-73
2022/11/18 01:52:39;;;;;;;1999.90;999.90;;;9.30;99.90;;;;;;6740568;87;20341;-74
2022/11/18 02:02:40;;;;;;;1999.90;999.90;;;9.20;99.90;;;;;;6738305;87;20197;-73
2022/11/18 02:12:41;;;;;;;1999.90;999.90;;;9.30;99.90;;;;;;6737141;87;20260;-74
2022/11/18 02:23:10;;;;;;;1999.90;999.90;;;9.30;99.90;;;;;;6739559;87;20331;-73
2022/11/18 02:33:16;;;;;;;1999.90;999.90;;;9.40;99.90;;;;;;6739817;87;20659;-74
2022/11/18 02:43:49;;;;;;;;;;;9.40;99.90;;;;;;6740009;87;20183;-73
2022/11/18 02:53:50;;;;;;;1999.90;999.90;;;9.30;99.90;;;;;;6736145;87;20054;-74
2022/11/18 03:03:51;;;;;;;1999.90;999.90;;;9.30;99.90;;;;;;6737722;87;20194;-74
2022/11/18 03:14:01;;;;;;;1999.90;999.90;;;9.30;99.90;;;;;;6745291;87;20255;-73
2022/11/18 03:24:21;;;;;;;1999.90;999.90;;;9.20;99.90;;;;;;6744773;87;20336;-74
2022/11/18 03:34:40;;;;;;;1999.90;999.90;;;9.20;99.90;;;;;;6746813;87;20307;-73
2022/11/18 03:44:47;;;;;;;1999.90;999.90;;;9.20;99.90;;;;;;6741282;87;20206;-73
2022/11/18 03:54:51;;;;;;;1999.90;999.90;;;9.20;99.90;;;;;;6744846;87;20181;-73
2022/11/18 04:04:54;;;;;;;1999.90;999.90;;;9.10;99.90;;;;;;6743131;87;20200;-73
2022/11/18 04:14:55;;;;;;;1999.90;999.90;;;9.00;99.90;;;;;;6766625;87;20150;-73
2022/11/18 04:24:55;;;;;;;1999.90;999.90;;;9.00;99.90;;;;;;6757490;87;20208;-74
2022/11/18 04:34:56;;;;;;;1999.90;999.90;;;9.00;99.90;;;;;;6740446;87;20934;-73
2022/11/18 04:44:57;;;;;;;1999.90;999.90;;;9.10;99.90;;;;;;6743738;87;20689;-73
2022/11/18 04:54:57;;;;;;;1999.90;999.90;;;9.00;99.90;;;;;;6742049;87;20275;-74
2022/11/18 05:04:58;;;;;;;1999.90;999.90;;;9.00;99.90;;;;;;6739416;87;21073;-74
2022/11/18 05:14:59;;;;;;;1999.90;999.90;;;8.90;99.90;;;;;;6743261;87;20213;-74
2022/11/18 05:25:00;;;;;;;1999.90;999.90;;;8.80;99.90;;;;;;6739794;87;20247;-74
2022/11/18 05:35:01;;;;;;;1999.90;999.90;;;8.80;99.90;;;;;;6744327;87;20187;-74
2022/11/18 05:45:01;;;;;;;1999.90;999.90;;;8.70;99.90;;;;;;6739140;87;20203;-73
2022/11/18 05:55:03;;;;;;;1999.90;999.90;;;8.70;99.90;;;;;;6737862;87;20629;-74
2022/11/18 06:05:04;;;;;;;1999.90;999.90;;;8.70;99.90;;;;;;6740270;87;20253;-73
2022/11/18 06:15:11;;;;;;;1999.90;999.90;;;8.70;99.90;;;;;;6744198;88;20628;-74
2022/11/18 06:25:13;;;;;;;1999.90;999.90;;;8.80;99.90;;;;;;6739828;76;20249;-75
2022/11/18 06:35:13;;;;;;;1999.90;999.90;;;8.90;99.90;;;;;;6733999;88;20318;-76
2022/11/18 06:45:14;;;;;;;1999.90;999.90;;;8.80;99.90;;;;;;6740017;88;20664;-76
2022/11/18 06:55:14;;;;;;;1999.90;999.90;;;8.80;99.90;;;;;;6741276;87;20212;-76
2022/11/18 07:05:15;;;;;;;1999.90;999.90;;;8.60;99.90;;;;;;6742141;87;20199;-76
2022/11/18 07:15:15;;;;;;;1999.90;999.90;;;8.60;99.90;;;;;;6740681;88;20185;-75
2022/11/18 07:25:16;;;;;;;1999.90;999.90;;;8.50;99.90;;;;;;6739072;88;20186;-76
2022/11/18 07:35:17;;;;;;;1999.90;999.90;;;8.50;99.90;;;;;;6744146;87;20749;-76
2022/11/18 07:45:18;;;;;;;1999.90;999.90;;;8.70;99.90;;;;;;6747941;88;20227;-76
2022/11/18 07:55:18;;;;;;;1999.90;999.90;;;8.80;99.90;;;;;;6744563;88;20756;-77
2022/11/18 08:05:19;;;;;;;1999.90;999.90;;;9.10;99.90;;;;;;6740080;88;20217;-77
2022/11/18 08:15:19;;;;;;;1999.90;999.90;;;9.20;99.90;;;;;;6739918;87;20747;-77
2022/11/18 08:25:20;;;;;;;1999.90;999.90;;;9.30;99.90;;;;;;6738504;87;20522;-77
2022/11/18 08:35:20;;;;;;;1999.90;999.90;;;9.30;99.90;;;;;;6741723;87;20227;-77
2022/11/18 08:45:21;;;;;;;1999.90;999.90;;;9.40;99.90;;;;;;6741312;88;20694;-77
2022/11/18 08:55:21;;;;;;;1999.90;999.90;;;9.30;99.90;;;;;;6741381;88;20238;-77
2022/11/18 09:05:22;;;;;;;1999.90;999.90;;;9.60;99.90;;;;;;6742561;88;20216;-77
2022/11/18 09:15:23;;;;;;;1999.90;999.90;;;9.80;99.90;;;;;;6743037;88;20186;-77
2022/11/18 09:25:23;;;;;;;1999.90;999.90;;;10.30;99.90;;;;;;6741563;88;20276;-77
2022/11/18 09:35:24;;;;;;;1999.90;999.90;;;11.10;99.90;;;;;;6745815;88;20275;-77
2022/11/18 09:45:34;;;;;;;1999.90;999.90;;;11.40;99.90;;;;;;6743676;87;20738;-77
2022/11/18 09:55:38;;;;;;;1999.90;999.90;;;11.60;99.90;;;;;;6738937;88;20506;-77
2022/11/18 10:05:49;;;;;;;1999.90;999.90;;;11.90;99.90;;;;;;6747461;88;20334;-77
2022/11/18 10:16:06;;;;;;;1999.90;999.90;;;12.30;99.90;;;;;;6746141;88;20732;-77
2022/11/18 10:26:07;;;;;;;1999.90;999.90;;;12.40;99.90;;;;;;6740928;88;20196;-77
2022/11/18 10:36:17;;;;;;;1999.90;999.90;;;13.30;99.90;;;;;;6742847;88;20209;-77
2022/11/18 10:46:28;;;;;;;1999.90;999.90;;;13.70;99.90;;;;;;6747266;88;20314;-77
2022/11/18 10:57:12;;;;;;;1999.90;999.90;;;14.80;99.90;;;;;;6747178;88;20232;-78
2022/11/18 11:07:26;;;;;;;1999.90;999.90;;;15.40;99.90;;;;;;6741347;87;20176;-77
2022/11/18 11:18:40;;;;;;;1999.90;999.90;;;15.90;99.90;;;;;;6747396;88;20665;-77
2022/11/18 11:28:29;;;;;;;1999.90;999.90;;;15.80;99.90;;;;;;6742854;88;20193;-76
2022/11/18 11:38:58;;;;;;;1999.90;999.90;;;15.00;99.90;;;;;;6741824;88;20200;-77
2022/11/18 11:49:26;;;;;;;1999.90;999.90;;;15.00;99.90;;;;;;6738167;88;20275;-77
2022/11/18 11:59:29;;;;;;;1999.90;999.90;;;15.20;99.90;;;;;;6746960;87;20184;-76
2022/11/18 12:09:32;;;;;;;1999.90;999.90;;;15.50;99.90;;;;;;6740599;88;20677;-76
2022/11/18 12:19:37;;;;;;;1999.90;999.90;;;14.50;99.90;;;;;;6742037;88;20182;-77
2022/11/18 12:29:50;;;;;;;1999.90;999.90;;;14.50;99.90;;;;;;6716371;76;20177;-76
2022/11/18 12:39:54;;;;;;;1999.90;999.90;;;14.70;99.90;;;;;;6713724;88;20186;-76
2022/11/18 12:50:13;;;;;;;1999.90;999.90;;;14.00;99.90;;;;;;6712576;88;20185;-76
2022/11/18 13:00:24;;;;;;;1999.90;999.90;;;13.60;99.90;;;;;;6714014;88;20268;-76
2022/11/18 13:10:28;;;;;;;1999.90;999.90;;;14.20;99.90;;;;;;6712028;88;20706;-77
2022/11/18 13:20:32;;;;;;;1999.90;999.90;;;16.60;99.90;;;;;;6712177;88;20372;-76
2022/11/18 13:30:36;;;;;;;1999.90;999.90;;;15.90;99.90;;;;;;6712230;88;20189;-76
2022/11/18 13:41:03;;;;;;;1999.90;999.90;;;15.20;99.90;;;;;;6712960;88;20677;-76
2022/11/18 13:51:03;;;;;;;1999.90;999.90;;;15.10;99.90;;;;;;6712459;88;20193;-76
2022/11/18 14:01:17;;;;;;;1999.90;999.90;;;15.90;99.90;;;;;;6712852;88;20240;-76
2022/11/18 14:11:36;;;;;;;1999.90;999.90;;;16.30;99.90;;;;;;6712305;88;20333;-76
2022/11/18 14:21:37;;;;;;;1999.90;999.90;;;16.20;99.90;;;;;;6713693;88;20193;-75
2022/11/18 14:31:37;;;;;;;1999.90;999.90;;;16.10;99.90;;;;;;6712421;88;20222;-75
2022/11/18 14:41:47;;;;;;;1999.90;999.90;;;15.00;99.90;;;;;;6708978;88;20219;-76
2022/11/18 14:51:48;;;;;;;1999.90;999.90;;;13.90;99.90;;;;;;6713261;88;20215;-76
2022/11/18 15:01:49;;;;;;;1999.90;999.90;;;13.70;99.90;;;;;;6712479;88;20259;-76
2022/11/18 15:11:49;;;;;;;1999.90;999.90;;;13.30;99.90;;;;;;6711841;88;20211;-76
2022/11/18 15:21:50;;;;;;;1999.90;999.90;;;12.90;99.90;;;;;;6713913;88;20217;-76
2022/11/18 15:31:50;;;;;;;1999.90;999.90;;;12.90;99.90;;;;;;6711571;88;20189;-76
2022/11/18 15:41:51;;;;;;;1999.90;999.90;;;12.70;99.90;;;;;;6711179;88;20218;-76
2022/11/18 15:51:51;;;;;;;1999.90;999.90;;;12.60;99.90;;;;;;6716438;88;20189;-75
2022/11/18 16:01:54;;;;;;;1999.90;999.90;;;12.30;99.90;;;;;;6714548;88;20208;-76
2022/11/18 16:22:14;;;;;;;1999.90;999.90;;;12.10;99.90;;;;;;6715719;88;20586;-76
2022/11/18 16:32:14;;;;;;;1999.90;999.90;;;12.10;99.90;;;;;;6714875;88;20210;-75
2022/11/18 16:42:15;;;;;;;1999.90;999.90;;;11.90;99.90;;;;;;6715223;88;20186;-76
2022/11/18 16:52:16;;;;;;;1999.90;999.90;;;11.70;99.90;;;;;;6718952;88;20248;-76
2022/11/18 17:02:19;;;;;;;1999.90;999.90;;;11.50;99.90;;;;;;6713543;88;20677;-76
2022/11/18 17:12:19;;;;;;;1999.90;999.90;;;11.40;99.90;;;;;;6713809;88;20174;-75
2022/11/18 17:22:20;;;;;;;1999.90;999.90;;;11.20;99.90;;;;;;6709715;88;20215;-75
2022/11/18 17:32:20;;;;;;;1999.90;999.90;;;11.00;99.90;;;;;;6704797;88;20185;-75
2022/11/18 17:42:24;;;;;;;1999.90;999.90;;;11.00;99.90;;;;;;6708829;88;20214;-76
2022/11/18 17:52:25;;;;;;;1999.90;999.90;;;10.80;99.90;;;;;;6711664;88;20225;-76
2022/11/18 18:02:25;;;;;;;1999.90;999.90;;;10.70;99.90;;;;;;6706348;88;20739;-75
2022/11/18 18:22:45;;;;;;;1999.90;999.90;;;10.30;99.90;;;;;;6717717;77;20185;-77
2022/11/18 18:32:45;;;;;;;1999.90;999.90;;;10.20;99.90;;;;;;6729684;88;20251;-76
2022/11/18 18:42:46;;;;;;;1999.90;999.90;;;10.20;99.90;;;;;;6727009;88;20911;-77
2022/11/18 18:52:46;;;;;;;1999.90;999.90;;;10.10;99.90;;;;;;6729365;88;20247;-76
2022/11/18 19:02:47;;;;;;;1999.90;999.90;;;10.00;99.90;;;;;;6728483;88;20299;-77
2022/11/18 19:12:51;;;;;;;1999.90;999.90;;;10.00;99.90;;;;;;6725645;88;20297;-77
2022/11/18 19:22:51;;;;;;;1999.90;999.90;;;9.70;99.90;;;;;;6726296;88;20192;-77
2022/11/18 19:32:54;;;;;;;1999.90;999.90;;;9.50;99.90;;;;;;6726995;88;20199;-76
2022/11/18 19:42:55;;;;;;;1999.90;999.90;;;9.30;99.90;;;;;;6726939;88;20197;-77
2022/11/18 19:52:55;;;;;;;1999.90;999.90;;;9.20;99.90;;;;;;6737741;88;20629;-77
2022/11/18 20:02:56;;;;;;;1999.90;999.90;;;9.20;99.90;;;;;;6725809;88;20291;-77
2022/11/18 20:12:56;;;;;;;1999.90;999.90;;;9.20;99.90;;;;;;6723057;88;20769;-76
2022/11/18 20:22:57;;;;;;;1999.90;999.90;;;9.10;99.90;;;;;;6729961;88;20685;-76
2022/11/18 20:32:58;;;;;;;1999.90;999.90;;;9.00;99.90;;;;;;6729827;88;20307;-77
2022/11/18 20:43:11;;;;;;;1999.90;999.90;;;8.80;99.90;;;;;;6731990;88;20225;-76
2022/11/18 20:53:12;;;;;;;1999.90;999.90;;;8.90;99.90;;;;;;6725050;88;20205;-76
2022/11/18 21:03:13;;;;;;;1999.90;999.90;;;8.70;99.90;;;;;;6726508;88;20188;-76
2022/11/18 21:23:33;;;;;;;1999.90;999.90;;;8.80;99.90;;;;;;6729085;88;20180;-77
2022/11/18 21:33:33;;;;;;;1999.90;999.90;;;8.60;99.90;;;;;;6726305;88;20203;-77
2022/11/18 21:43:35;;;;;;;1999.90;999.90;;;8.50;99.90;;;;;;6724731;88;20290;-77
2022/11/18 21:53:36;;;;;;;1999.90;999.90;;;8.60;99.90;;;;;;6728156;88;20213;-76
2022/11/18 22:03:38;;;;;;;1999.90;999.90;;;8.60;99.90;;;;;;6725507;88;20189;-78
2022/11/18 22:13:39;;;;;;;1999.90;999.90;;;8.50;99.90;;;;;;6728271;88;20342;-77
2022/11/18 22:23:41;;;;;;;1999.90;999.90;;;8.50;99.90;;;;;;6727266;88;20238;-76
2022/11/18 22:33:44;;;;;;;1999.90;999.90;;;8.60;99.90;;;;;;6723858;88;20312;-77
2022/11/18 22:43:45;;;;;;;1999.90;999.90;;;8.50;99.90;;;;;;6727402;88;20215;-77
2022/11/18 22:53:45;;;;;;;1999.90;999.90;;;8.40;99.90;;;;;;6732010;88;20247;-76
2022/11/18 23:03:46;;;;;;;1999.90;999.90;;;8.30;99.90;;;;;;6732295;88;20392;-77
2022/11/18 23:14:02;;;;;;;1999.90;999.90;;;8.20;99.90;;;;;;6735699;88;20268;-78
2022/11/18 23:24:03;;;;;;;1999.90;999.90;;;8.30;99.90;;;;;;6738249;88;20174;-79
2022/11/18 23:34:03;;;;;;;1999.90;999.90;;;8.30;99.90;;;;;;6733866;88;20601;-77
2022/11/18 23:44:05;;;;;;;1999.90;999.90;;;8.30;99.90;;;;;;6729045;88;20227;-79
2022/11/18 23:54:07;;;;;;;1999.90;999.90;;;8.30;99.90;;;;;;6733036;88;20181;-76
